createdAt,value
2018-03-17T00:00:24.860Z,10.38
2018-03-17T00:02:52.713Z,14.93
2018-03-17T00:05:20.169Z,15.13
2018-03-17T00:07:47.622Z,24.55
2018-03-17T00:10:15.077Z,20.98
2018-03-17T00:12:42.520Z,16.10
2018-03-17T00:15:10.734Z,14.55
2018-03-17T00:17:38.226Z,17.87
2018-03-17T00:20:05.850Z,14.05
2018-03-17T00:22:33.312Z,19.45
2018-03-17T00:25:00.766Z,17.00
2018-03-17T00:27:28.217Z,18.25
2018-03-17T00:29:55.661Z,18.40
2018-03-17T00:32:23.114Z,12.48
2018-03-17T00:34:50.562Z,23.75
2018-03-17T00:37:18.017Z,14.48
2018-03-17T00:39:46.237Z,10.77
2018-03-17T00:42:13.682Z,11.68
2018-03-17T00:44:41.139Z,14.15
2018-03-17T00:47:08.611Z,14.73
2018-03-17T00:49:36.060Z,12.10
2018-03-17T00:52:03.746Z,10.45
2018-03-17T00:54:31.201Z,10.07
2018-03-17T00:56:58.650Z,11.40
2018-03-17T00:59:26.107Z,12.85
2018-03-17T01:01:53.568Z,12.88
2018-03-17T01:04:21.015Z,17.00
2018-03-17T01:06:48.469Z,13.50
2018-03-17T01:09:15.932Z,12.25
2018-03-17T01:11:43.385Z,13.85
2018-03-17T01:14:10.883Z,10.55
2018-03-17T01:16:39.097Z,13.20
2018-03-17T01:19:06.564Z,14.02
2018-03-17T01:21:34.021Z,12.23
2018-03-17T01:24:01.474Z,13.95
2018-03-17T01:26:28.922Z,12.43
2018-03-17T01:28:56.409Z,11.10
2018-03-17T01:31:23.858Z,13.68
2018-03-17T01:33:51.314Z,11.25
2018-03-17T01:36:18.762Z,10.85
2018-03-17T01:38:46.253Z,11.10
2018-03-17T01:41:13.717Z,10.20
2018-03-17T01:43:41.160Z,13.43
2018-03-17T01:46:08.627Z,13.85
2018-03-17T01:48:36.070Z,11.07
2018-03-17T01:51:03.518Z,9.32
2018-03-17T01:53:30.971Z,12.05
2018-03-17T01:55:58.428Z,17.02
2018-03-17T01:58:25.885Z,11.00
2018-03-17T02:00:53.346Z,14.77
2018-03-17T02:03:20.801Z,18.33
2018-03-17T02:05:48.253Z,9.70
2018-03-17T02:08:15.768Z,21.75
2018-03-17T02:10:43.213Z,12.90
2018-03-17T02:13:10.663Z,12.85
2018-03-17T02:15:38.898Z,11.88
2018-03-17T02:18:06.349Z,11.52
2018-03-17T02:20:33.812Z,13.93
2018-03-17T02:23:01.281Z,16.27
2018-03-17T02:25:28.757Z,24.75
2018-03-17T02:27:56.977Z,42.33
2018-03-17T02:30:24.451Z,37.83
2018-03-17T02:32:51.906Z,15.60
2018-03-17T02:35:19.349Z,14.50
2018-03-17T02:37:46.796Z,11.55
2018-03-17T02:40:14.241Z,14.93
2018-03-17T02:42:42.359Z,12.95
2018-03-17T02:45:09.822Z,12.15
2018-03-17T02:47:37.281Z,14.82
2018-03-17T02:50:04.737Z,13.45
2018-03-17T02:52:32.248Z,13.38
2018-03-17T02:54:59.638Z,11.68
2018-03-17T02:57:27.089Z,13.32
2018-03-17T02:59:54.948Z,16.48
2018-03-17T03:02:22.403Z,19.45
2018-03-17T03:04:49.871Z,14.02
2018-03-17T03:07:17.317Z,12.55
2018-03-17T03:09:45.532Z,14.65
2018-03-17T03:12:13.749Z,13.48
2018-03-17T03:14:41.215Z,12.55
2018-03-17T03:17:08.665Z,11.88
2018-03-17T03:19:36.128Z,10.95
2018-03-17T03:22:03.593Z,12.50
2018-03-17T03:24:31.043Z,10.27
2018-03-17T03:26:58.482Z,12.45
2018-03-17T03:29:25.949Z,13.13
2018-03-17T03:31:53.410Z,11.75
2018-03-17T03:34:20.857Z,12.55
2018-03-17T03:36:48.298Z,7.45
2018-03-17T03:39:15.755Z,10.65
2018-03-17T03:41:43.204Z,15.23
2018-03-17T03:44:10.664Z,10.23
2018-03-17T03:46:38.118Z,17.33
2018-03-17T03:49:06.337Z,14.75
2018-03-17T03:51:33.793Z,11.25
2018-03-17T03:54:01.241Z,10.90
2018-03-17T03:56:28.690Z,10.82
2018-03-17T03:58:56.138Z,10.15
2018-03-17T04:01:23.593Z,11.70
2018-03-17T04:03:52.183Z,11.75
2018-03-17T04:06:19.649Z,182.37
2018-03-17T04:08:47.100Z,80.40
2018-03-17T04:11:14.557Z,17.55
2018-03-17T04:13:42.016Z,10.90
2018-03-17T04:16:09.482Z,12.80
2018-03-17T04:18:36.941Z,10.82
2018-03-17T04:21:04.424Z,15.32
2018-03-17T04:23:31.861Z,11.27
2018-03-17T04:25:59.359Z,12.07
2018-03-17T04:28:27.584Z,10.90
2018-03-17T04:30:55.807Z,15.25
2018-03-17T04:33:24.018Z,18.58
2018-03-17T04:35:51.467Z,9.02
2018-03-17T04:38:18.933Z,11.60
2018-03-17T04:40:46.401Z,10.73
2018-03-17T04:43:13.858Z,7.78
2018-03-17T04:45:41.302Z,10.63
2018-03-17T04:48:08.748Z,9.50
2018-03-17T04:50:36.197Z,10.05
2018-03-17T04:53:03.690Z,11.73
2018-03-17T04:55:31.207Z,10.02
2018-03-17T04:57:59.410Z,11.70
2018-03-17T05:00:26.866Z,13.55
2018-03-17T05:02:54.317Z,11.95
2018-03-17T05:05:21.772Z,13.65
2018-03-17T05:07:49.229Z,8.68
2018-03-17T05:10:17.084Z,10.00
2018-03-17T05:12:44.524Z,9.48
2018-03-17T05:15:11.980Z,13.25
2018-03-17T05:17:39.426Z,10.32
2018-03-17T05:20:07.659Z,14.00
2018-03-17T05:22:35.103Z,11.68
2018-03-17T05:25:02.549Z,9.95
2018-03-17T05:27:30.004Z,9.73
2018-03-17T05:29:57.437Z,7.68
2018-03-17T05:32:25.636Z,8.13
2018-03-17T05:34:53.093Z,10.68
2018-03-17T05:37:20.537Z,10.52
2018-03-17T05:39:47.980Z,9.20
2018-03-17T05:42:15.473Z,11.50
2018-03-17T05:44:42.917Z,8.80
2018-03-17T05:47:10.372Z,10.10
2018-03-17T05:49:37.826Z,14.02
2018-03-17T05:52:06.037Z,10.07
2018-03-17T05:54:33.516Z,28.75
2018-03-17T05:57:00.986Z,30.15
2018-03-17T05:59:29.205Z,14.68
2018-03-17T06:01:56.648Z,16.23
2018-03-17T06:04:24.112Z,12.88
2018-03-17T06:06:51.565Z,10.40
2018-03-17T06:09:19.016Z,11.35
2018-03-17T06:11:46.477Z,7.07
2018-03-17T06:14:13.935Z,14.93
2018-03-17T06:16:41.393Z,15.55
2018-03-17T06:19:08.878Z,13.88
2018-03-17T06:21:36.352Z,15.15
2018-03-17T06:24:03.800Z,14.85
2018-03-17T06:26:31.256Z,11.25
2018-03-17T06:28:58.701Z,14.02
2018-03-17T06:31:26.165Z,12.37
2018-03-17T06:33:53.614Z,14.55
2018-03-17T06:36:21.833Z,11.07
2018-03-17T06:38:50.042Z,8.38
2018-03-17T06:41:17.503Z,12.60
2018-03-17T06:43:44.963Z,16.27
2018-03-17T06:46:12.982Z,10.75
2018-03-17T06:48:41.190Z,9.43
2018-03-17T06:51:08.652Z,19.37
2018-03-17T06:53:36.103Z,16.42
2018-03-17T06:56:03.561Z,14.45
2018-03-17T06:58:31.012Z,20.10
2018-03-17T07:00:58.461Z,22.75
2018-03-17T07:03:25.957Z,20.77
2018-03-17T07:05:53.400Z,7.78
2018-03-17T07:08:20.852Z,7.60
2018-03-17T07:10:48.293Z,8.15
2018-03-17T07:13:16.147Z,9.30
2018-03-17T07:15:43.595Z,7.32
2018-03-17T07:18:11.047Z,7.65
2018-03-17T07:20:39.274Z,6.15
2018-03-17T07:23:06.761Z,4.73
2018-03-17T07:25:34.209Z,12.27
2018-03-17T07:28:02.104Z,8.60
2018-03-17T07:30:30.323Z,7.27
2018-03-17T07:32:57.869Z,6.87
2018-03-17T07:35:25.326Z,6.70
2018-03-17T07:37:52.852Z,3.90
2018-03-17T07:40:21.083Z,5.13
2018-03-17T07:42:49.304Z,11.00
2018-03-17T07:45:16.865Z,12.00
2018-03-17T07:47:45.100Z,5.40
2018-03-17T07:50:12.564Z,4.80
2018-03-17T07:52:40.009Z,6.47
2018-03-17T07:55:07.474Z,3.83
2018-03-17T07:57:34.928Z,4.77
2018-03-17T08:00:02.386Z,3.67
2018-03-17T08:02:29.853Z,8.37
2018-03-17T08:04:57.290Z,5.07
2018-03-17T08:07:24.746Z,3.27
2018-03-17T08:09:52.205Z,4.50
2018-03-17T08:12:19.666Z,4.70
2018-03-17T08:14:47.123Z,7.97
2018-03-17T08:17:14.577Z,7.93
2018-03-17T08:19:42.018Z,3.30
2018-03-17T08:22:09.472Z,4.80
2018-03-17T08:24:36.930Z,4.07
2018-03-17T08:27:04.400Z,4.90
2018-03-17T08:29:31.855Z,6.37
2018-03-17T08:31:59.316Z,8.30
2018-03-17T08:34:26.768Z,7.57
2018-03-17T08:36:54.989Z,7.20
2018-03-17T08:39:23.225Z,5.27
2018-03-17T08:41:50.683Z,4.10
2018-03-17T08:44:18.126Z,4.70
2018-03-17T08:46:45.590Z,8.23
2018-03-17T08:49:13.058Z,6.93
2018-03-17T08:51:40.513Z,6.20
2018-03-17T08:54:07.962Z,5.90
2018-03-17T08:56:35.409Z,8.00
2018-03-17T08:59:02.869Z,8.03
2018-03-17T09:01:30.336Z,7.30
2018-03-17T09:03:57.797Z,4.13
2018-03-17T09:06:25.237Z,5.87
2018-03-17T09:08:53.848Z,4.93
2018-03-17T09:11:21.299Z,10.60
2018-03-17T09:13:48.759Z,5.90
2018-03-17T09:16:16.215Z,5.83
2018-03-17T09:18:43.665Z,7.87
2018-03-17T09:21:11.349Z,7.13
2018-03-17T09:23:39.573Z,6.03
2018-03-17T09:26:07.022Z,7.73
2018-03-17T09:28:34.471Z,7.40
2018-03-17T09:31:01.943Z,12.30
2018-03-17T09:33:29.406Z,9.20
2018-03-17T09:35:56.846Z,8.93
2018-03-17T09:38:24.284Z,6.33
2018-03-17T09:40:51.733Z,11.33
2018-03-17T09:43:19.184Z,10.30
2018-03-17T09:45:47.408Z,10.10
2018-03-17T09:48:14.850Z,6.80
2018-03-17T09:50:42.298Z,14.13
2018-03-17T09:53:09.749Z,123.80
2018-03-17T09:55:38.003Z,11.20
2018-03-17T09:58:06.217Z,17.40
2018-03-17T10:00:33.664Z,11.93
2018-03-17T10:03:01.131Z,14.50
2018-03-17T10:05:28.584Z,13.40
2018-03-17T10:07:56.029Z,14.10
2018-03-17T10:10:23.878Z,7.43
2018-03-17T10:12:51.351Z,7.70
2018-03-17T10:15:18.810Z,10.20
2018-03-17T10:17:46.265Z,7.00
2018-03-17T10:20:13.714Z,9.43
2018-03-17T10:22:41.169Z,7.20
2018-03-17T10:25:08.645Z,14.10
2018-03-17T10:27:36.107Z,8.00
2018-03-17T10:30:03.584Z,8.90
2018-03-17T10:32:31.049Z,9.33
2018-03-17T10:34:58.508Z,7.00
2018-03-17T10:37:25.968Z,12.47
2018-03-17T10:39:53.406Z,8.60
2018-03-17T10:42:20.867Z,13.63
2018-03-17T10:44:48.318Z,8.20
2018-03-17T10:47:15.776Z,10.30
2018-03-17T10:49:43.303Z,7.90
2018-03-17T10:52:10.698Z,10.33
2018-03-17T10:54:38.166Z,14.77
2018-03-17T10:57:06.383Z,14.50
2018-03-17T10:59:33.835Z,14.13
2018-03-17T11:02:05.080Z,19.10
2018-03-17T11:04:32.539Z,16.23
2018-03-17T11:07:00.003Z,16.47
2018-03-17T11:09:27.466Z,21.03
2018-03-17T11:11:55.765Z,22.20
2018-03-17T11:14:23.236Z,27.63
2018-03-17T11:16:50.731Z,20.90
2018-03-17T11:19:18.142Z,20.57
2018-03-17T11:21:45.603Z,24.07
2018-03-17T11:24:13.048Z,22.23
2018-03-17T11:26:40.499Z,20.93
2018-03-17T11:29:07.966Z,23.43
2018-03-17T11:31:35.450Z,23.77
2018-03-17T11:34:02.895Z,21.30
2018-03-17T11:36:30.361Z,23.60
2018-03-17T11:38:58.589Z,26.67
2018-03-17T11:41:26.726Z,26.60
2018-03-17T11:43:54.945Z,27.03
2018-03-17T11:46:22.396Z,29.00
2018-03-17T11:48:49.856Z,25.67
2018-03-17T11:51:17.310Z,24.17
2018-03-17T11:53:44.762Z,23.23
2018-03-17T11:56:12.226Z,24.83
2018-03-17T11:58:39.686Z,21.97
2018-03-17T12:01:07.142Z,22.83
2018-03-17T12:03:34.612Z,20.30
2018-03-17T12:06:02.060Z,28.30
2018-03-17T12:08:29.522Z,23.53
2018-03-17T12:10:56.977Z,25.80
2018-03-17T12:13:24.434Z,26.03
2018-03-17T12:15:51.882Z,27.53
2018-03-17T12:18:19.396Z,29.73
2018-03-17T12:20:47.621Z,36.90
2018-03-17T12:23:15.072Z,27.73
2018-03-17T12:25:42.531Z,37.77
2018-03-17T12:28:10.005Z,36.47
2018-03-17T12:30:37.472Z,33.90
2018-03-17T12:33:04.939Z,35.00
2018-03-17T12:35:33.161Z,35.03
2018-03-17T12:38:00.654Z,33.70
2018-03-17T12:40:28.155Z,35.53
2018-03-17T12:42:55.587Z,36.47
2018-03-17T12:45:23.813Z,36.00
2018-03-17T12:47:51.276Z,34.30
2018-03-17T12:50:18.734Z,35.53
2018-03-17T12:52:46.199Z,35.90
2018-03-17T12:55:13.652Z,46.00
2018-03-17T12:57:41.106Z,40.60
2018-03-17T13:00:08.557Z,36.83
2018-03-17T13:02:36.040Z,40.17
2018-03-17T13:05:03.492Z,41.23
2018-03-17T13:07:30.942Z,41.83
2018-03-17T13:09:58.391Z,40.37
2018-03-17T13:12:25.850Z,32.37
2018-03-17T13:14:53.310Z,39.20
2018-03-17T13:17:20.769Z,42.53
2018-03-17T13:19:48.230Z,40.00
2018-03-17T13:22:15.677Z,40.07
2018-03-17T13:24:43.138Z,38.27
2018-03-17T13:27:22.463Z,42.10
2018-03-17T13:29:49.907Z,37.40
2018-03-17T13:32:29.309Z,35.33
2018-03-17T13:34:56.757Z,37.37
2018-03-17T13:37:38.230Z,37.07
2018-03-17T13:40:18.284Z,43.00
2018-03-17T13:42:46.499Z,43.50
2018-03-17T13:45:14.721Z,41.17
2018-03-17T13:47:42.168Z,33.70
2018-03-17T13:50:09.623Z,34.07
2018-03-17T13:52:37.078Z,34.87
2018-03-17T13:55:04.529Z,33.20
2018-03-17T13:57:31.983Z,36.90
2018-03-17T13:59:59.441Z,30.83
2018-03-17T14:02:26.889Z,34.70
2018-03-17T14:04:54.341Z,30.03
2018-03-17T14:07:21.816Z,30.47
2018-03-17T14:09:49.283Z,30.47
2018-03-17T14:12:16.729Z,30.23
2018-03-17T14:14:44.190Z,39.03
2018-03-17T14:17:11.644Z,30.50
2018-03-17T14:19:39.112Z,25.47
2018-03-17T14:22:08.074Z,31.03
2018-03-17T14:24:35.542Z,32.60
2018-03-17T14:27:04.507Z,37.33
2018-03-17T14:29:31.969Z,42.20
2018-03-17T14:31:59.426Z,38.30
2018-03-17T14:34:26.905Z,32.13
2018-03-17T14:36:54.359Z,42.27
2018-03-17T14:39:21.819Z,38.60
2018-03-17T14:41:49.277Z,39.97
2018-03-17T14:44:16.749Z,37.60
2018-03-17T14:46:44.208Z,35.13
2018-03-17T14:49:11.669Z,37.67
2018-03-17T14:51:39.891Z,36.90
2018-03-17T14:54:08.502Z,39.00
2018-03-17T14:56:35.944Z,30.47
2018-03-17T14:59:03.399Z,35.67
2018-03-17T15:01:30.869Z,40.10
2018-03-17T15:03:58.318Z,45.80
2018-03-17T15:06:25.774Z,35.13
2018-03-17T15:08:53.229Z,33.97
2018-03-17T15:11:20.688Z,38.87
2018-03-17T15:13:48.144Z,35.80
2018-03-17T15:16:15.594Z,41.83
2018-03-17T15:18:43.049Z,32.60
2018-03-17T15:21:10.527Z,39.23
2018-03-17T15:23:37.993Z,33.70
2018-03-17T15:26:05.448Z,35.67
2018-03-17T15:28:32.900Z,36.10
2018-03-17T15:31:00.361Z,34.07
2018-03-17T15:33:27.815Z,34.80
2018-03-17T15:35:55.282Z,39.33
2018-03-17T15:38:22.738Z,41.40
2018-03-17T15:40:50.198Z,41.63
2018-03-17T15:43:17.673Z,40.03
2018-03-17T15:45:45.903Z,35.90
2018-03-17T15:48:13.351Z,44.60
2018-03-17T15:50:40.821Z,42.17
2018-03-17T15:55:50.890Z,42.33
2018-03-17T15:58:18.359Z,50.43
2018-03-17T16:00:45.805Z,47.00
2018-03-17T16:03:13.265Z,49.50
2018-03-17T16:05:40.723Z,52.53
2018-03-17T16:08:08.172Z,48.60
2018-03-17T16:10:35.624Z,52.80
2018-03-17T16:13:03.116Z,48.43
2018-03-17T16:15:30.537Z,54.50
2018-03-17T16:17:57.996Z,54.17
2018-03-17T16:20:25.457Z,50.50
2018-03-17T16:22:52.923Z,54.77
2018-03-17T16:25:20.379Z,57.57
2018-03-17T16:27:47.855Z,53.37
2018-03-17T16:30:16.101Z,55.60
2018-03-17T16:32:43.559Z,54.67
2018-03-17T16:35:11.031Z,64.03
2018-03-17T16:37:39.260Z,63.28
2018-03-17T16:40:06.728Z,56.67
2018-03-17T16:42:34.187Z,65.40
2018-03-17T16:45:01.650Z,57.17
2018-03-17T16:47:29.106Z,63.47
2018-03-17T16:49:56.568Z,61.47
2018-03-17T16:52:24.035Z,57.78
2018-03-17T16:54:51.494Z,69.60
2018-03-17T16:57:18.956Z,60.65
2018-03-17T16:59:46.424Z,60.22
2018-03-17T17:02:14.671Z,63.87
2018-03-17T17:04:42.158Z,65.43
2018-03-17T17:07:09.613Z,61.55
2018-03-17T17:09:37.834Z,60.03
2018-03-17T17:12:05.296Z,62.67
2018-03-17T17:14:32.764Z,57.25
2018-03-17T17:17:00.234Z,65.85
2018-03-17T17:19:27.689Z,69.80
2018-03-17T17:21:55.149Z,81.30
2018-03-17T17:24:22.622Z,61.97
2018-03-17T17:26:50.492Z,61.08
2018-03-17T17:29:18.350Z,63.28
2018-03-17T17:31:45.820Z,70.45
2018-03-17T17:34:14.039Z,73.93
2018-03-17T17:36:41.495Z,75.95
2018-03-17T17:39:08.958Z,64.72
2018-03-17T17:41:36.417Z,71.55
2018-03-17T17:44:03.892Z,76.20
2018-03-17T17:46:31.359Z,74.43
2018-03-17T17:48:58.806Z,58.22
2018-03-17T17:51:26.263Z,89.00
2018-03-17T17:53:53.715Z,66.40
2018-03-17T17:56:21.662Z,70.18
2018-03-17T17:58:49.834Z,65.03
2018-03-17T18:01:17.320Z,72.20
2018-03-17T18:03:44.778Z,63.22
2018-03-17T18:06:12.250Z,70.10
2018-03-17T18:08:39.711Z,74.32
2018-03-17T18:11:07.933Z,72.10
2018-03-17T18:13:35.398Z,68.40
2018-03-17T18:16:02.861Z,72.78
2018-03-17T18:18:30.309Z,69.95
2018-03-17T18:20:57.769Z,73.60
2018-03-17T18:23:25.218Z,61.83
2018-03-17T18:25:52.681Z,68.47
2018-03-17T18:28:20.217Z,60.17
2018-03-17T18:30:47.682Z,58.83
2018-03-17T18:33:15.154Z,69.90
2018-03-17T18:35:42.605Z,69.25
2018-03-17T18:38:10.831Z,41.67
2018-03-17T18:40:39.053Z,60.90
2018-03-17T18:43:06.524Z,55.40
2018-03-17T18:45:33.983Z,49.95
2018-03-17T18:48:01.468Z,56.25
2018-03-17T18:50:28.909Z,55.50
2018-03-17T18:52:56.379Z,57.80
2018-03-17T18:55:23.833Z,55.28
2018-03-17T18:57:51.289Z,59.90
2018-03-17T19:00:18.744Z,53.00
2018-03-17T19:02:47.755Z,52.62
2018-03-17T19:05:15.225Z,57.28
2018-03-17T19:07:42.688Z,61.75
2018-03-17T19:10:10.204Z,50.75
2018-03-17T19:12:38.377Z,55.97
2018-03-17T19:15:05.834Z,55.80
2018-03-17T19:17:33.299Z,67.60
2018-03-17T19:20:00.758Z,64.60
2018-03-17T19:22:28.218Z,51.45
2018-03-17T19:24:55.682Z,51.25
2018-03-17T19:27:23.913Z,52.47
2018-03-17T19:29:51.374Z,70.03
2018-03-17T19:32:18.856Z,49.00
2018-03-17T19:34:46.325Z,63.00
2018-03-17T19:37:14.553Z,56.10
2018-03-17T19:39:42.020Z,56.88
2018-03-17T19:42:09.470Z,55.53
2018-03-17T19:44:36.924Z,51.50
2018-03-17T19:47:04.382Z,58.55
2018-03-17T19:49:31.848Z,53.95
2018-03-17T19:51:59.319Z,57.13
2018-03-17T19:54:26.805Z,61.83
2018-03-17T19:56:55.025Z,56.10
2018-03-17T19:59:22.489Z,48.67
2018-03-17T20:01:49.982Z,51.37
2018-03-17T20:04:17.448Z,58.75
2018-03-17T20:06:45.687Z,57.05
2018-03-17T20:09:13.144Z,46.63
2018-03-17T20:11:40.614Z,47.95
2018-03-17T20:14:08.065Z,39.65
2018-03-17T20:16:35.529Z,56.15
2018-03-17T20:19:02.986Z,45.50
2018-03-17T20:21:30.452Z,51.60
2018-03-17T20:23:57.907Z,42.72
2018-03-17T20:26:25.353Z,46.67
2018-03-17T20:28:52.857Z,38.97
2018-03-17T20:31:21.081Z,45.42
2018-03-17T20:33:48.542Z,39.63
2018-03-17T20:36:16.430Z,48.30
2018-03-17T20:38:44.675Z,46.97
2018-03-17T20:41:12.145Z,51.97
2018-03-17T20:43:39.601Z,52.28
2018-03-17T20:46:07.057Z,58.28
2018-03-17T20:48:34.527Z,63.40
2018-03-17T20:51:01.994Z,55.58
2018-03-17T20:53:30.228Z,56.00
2018-03-17T20:55:57.689Z,48.40
2018-03-17T20:58:25.148Z,44.07
2018-03-17T21:00:52.617Z,58.05
2018-03-17T21:03:20.064Z,47.85
2018-03-17T21:05:47.520Z,55.45
2018-03-17T21:08:14.986Z,56.42
2018-03-17T21:10:42.442Z,50.03
2018-03-17T21:13:09.910Z,48.33
2018-03-17T21:15:37.381Z,44.90
2018-03-17T21:18:05.614Z,45.75
2018-03-17T21:20:33.069Z,45.40
2018-03-17T21:23:00.521Z,46.15
2018-03-17T21:25:27.975Z,47.80
2018-03-17T21:27:55.429Z,36.60
2018-03-17T21:30:22.881Z,47.45
2018-03-17T21:32:50.338Z,39.63
2018-03-17T21:35:17.849Z,40.17
2018-03-17T21:37:46.015Z,30.98
2018-03-17T21:40:13.874Z,36.28
2018-03-17T21:42:41.328Z,29.50
2018-03-17T21:45:08.795Z,35.25
2018-03-17T21:47:36.259Z,29.95
2018-03-17T21:50:03.707Z,37.53
2018-03-17T21:52:31.162Z,33.03
2018-03-17T21:54:58.621Z,38.70
2018-03-17T21:57:26.076Z,38.45
2018-03-17T21:59:53.535Z,36.40
2018-03-17T22:02:20.985Z,31.65
2018-03-17T22:04:48.448Z,39.97
2018-03-17T22:07:15.943Z,47.17
2018-03-17T22:09:43.398Z,41.45
2018-03-17T22:12:10.853Z,37.78
2018-03-17T22:14:38.319Z,44.28
2018-03-17T22:17:05.776Z,40.33
2018-03-17T22:19:33.241Z,47.05
2018-03-17T22:22:00.690Z,42.67
2018-03-17T22:24:28.200Z,44.80
2018-03-17T22:26:55.658Z,44.45
2018-03-17T22:29:23.117Z,50.55
2018-03-17T22:31:51.406Z,46.30
2018-03-17T22:34:18.807Z,45.10
2018-03-17T22:36:47.408Z,51.35
2018-03-17T22:39:15.262Z,63.92
2018-03-17T22:41:42.723Z,48.47
2018-03-17T22:44:10.186Z,56.70
2018-03-17T22:46:37.646Z,59.97
2018-03-17T22:49:05.098Z,66.15
2018-03-17T22:51:32.555Z,37.85
2018-03-17T22:53:59.993Z,51.08
2018-03-17T22:56:27.453Z,57.30
2018-03-17T22:58:54.910Z,53.47
2018-03-17T23:01:22.356Z,54.30
2018-03-17T23:03:49.816Z,56.22
2018-03-17T23:06:17.283Z,50.42
2018-03-17T23:08:44.751Z,50.75
2018-03-17T23:11:12.222Z,50.97
2018-03-17T23:13:39.679Z,58.65
2018-03-17T23:16:07.138Z,53.95
2018-03-17T23:18:34.593Z,55.88
2018-03-17T23:21:02.121Z,47.40
2018-03-17T23:23:29.741Z,55.47
2018-03-17T23:25:57.306Z,57.03
2018-03-17T23:28:25.589Z,53.33
2018-03-17T23:30:53.134Z,52.08
2018-03-17T23:33:20.681Z,57.33
2018-03-17T23:35:49.038Z,58.78
2018-03-17T23:38:17.046Z,57.60
2018-03-17T23:40:44.566Z,49.85
2018-03-17T23:43:12.123Z,59.97
2018-03-17T23:45:39.662Z,58.05
2018-03-17T23:48:07.225Z,60.75
2018-03-17T23:50:34.797Z,50.25
2018-03-17T23:53:02.338Z,60.10
2018-03-17T23:55:29.929Z,49.90
2018-03-17T23:57:58.237Z,41.17
